createdAt,value
2019-05-16T17:00:17.491Z,50.44
2019-05-16T17:02:59.351Z,50.35
2019-05-16T17:05:17.030Z,50.30
2019-05-16T17:07:44.931Z,50.55
2019-05-16T17:10:12.803Z,50.62
2019-05-16T17:12:42.263Z,50.66
2019-05-16T17:15:10.187Z,50.90
2019-05-16T17:17:38.537Z,51.01
2019-05-16T17:20:07.618Z,51.14
2019-05-16T17:22:37.469Z,51.14
2019-05-16T17:25:07.159Z,51.25
2019-05-16T17:27:37.340Z,51.30
2019-05-16T17:30:07.239Z,51.38
2019-05-16T17:32:35.739Z,51.37
2019-05-16T17:35:03.394Z,51.37
2019-05-16T17:37:31.266Z,51.38
2019-05-16T17:39:58.965Z,51.31
2019-05-16T17:42:27.241Z,51.29
2019-05-16T17:44:56.571Z,51.31
2019-05-16T17:47:26.303Z,51.27
2019-05-16T17:49:54.102Z,51.27
2019-05-16T17:52:21.743Z,51.14
2019-05-16T17:54:49.506Z,50.93
2019-05-16T17:57:17.268Z,50.79
2019-05-16T17:59:47.796Z,50.75
2019-05-16T18:02:17.121Z,50.88
2019-05-16T18:04:46.993Z,51.02
2019-05-16T18:07:14.120Z,51.06
2019-05-16T18:09:43.089Z,51.11
2019-05-16T18:12:11.093Z,51.26
2019-05-16T18:14:38.718Z,51.32
2019-05-16T18:17:07.639Z,51.38
2019-05-16T18:19:37.262Z,51.44
2019-05-16T18:22:06.647Z,51.64
2019-05-16T18:24:36.764Z,51.72
2019-05-16T18:27:06.506Z,51.76
2019-05-16T18:29:36.347Z,51.90
2019-05-16T18:32:03.654Z,51.94
2019-05-16T18:34:31.351Z,51.92
2019-05-16T18:36:59.120Z,51.97
2019-05-16T18:39:27.245Z,52.14
2019-05-16T18:41:56.507Z,52.16
2019-05-16T18:44:24.478Z,52.18
2019-05-16T18:47:04.058Z,52.34
2019-05-16T18:49:24.079Z,52.13
2019-05-16T18:51:51.474Z,52.26
2019-05-16T18:54:19.448Z,52.37
2019-05-16T18:56:47.451Z,52.52
2019-05-16T18:59:16.888Z,52.66
2019-05-16T19:01:46.890Z,52.76
2019-05-16T19:04:14.464Z,52.72
2019-05-16T19:06:42.260Z,52.82
2019-05-16T19:09:10.199Z,52.95
2019-05-16T19:11:37.823Z,52.92
2019-05-16T19:14:07.620Z,52.96
2019-05-16T19:16:35.312Z,53.00
2019-05-16T19:19:03.185Z,53.07
2019-05-16T19:21:30.954Z,53.08
2019-05-16T19:23:58.687Z,53.13
2019-05-16T19:26:27.309Z,53.12
2019-05-16T19:28:57.145Z,53.14
2019-05-16T19:31:24.931Z,53.22
2019-05-16T19:33:52.696Z,53.34
2019-05-16T19:36:20.331Z,53.34
2019-05-16T19:38:48.102Z,53.39
2019-05-16T19:41:15.974Z,53.43
2019-05-16T19:43:43.848Z,53.49
2019-05-16T19:46:11.513Z,53.58
2019-05-16T19:48:39.181Z,53.61
2019-05-16T19:51:07.555Z,53.65
2019-05-16T19:53:36.478Z,53.71
2019-05-16T19:56:04.343Z,53.71
2019-05-16T19:58:32.205Z,53.77
2019-05-16T20:00:59.974Z,53.85
2019-05-16T20:03:27.639Z,53.95
2019-05-16T20:05:56.871Z,54.07
2019-05-16T20:08:26.868Z,54.13
2019-05-16T20:10:54.327Z,54.26
2019-05-16T20:13:22.205Z,54.63
2019-05-16T20:15:49.785Z,54.66
2019-05-16T20:18:18.502Z,54.55
2019-05-16T20:20:47.210Z,54.42
2019-05-16T20:23:16.606Z,54.46
2019-05-16T20:25:46.885Z,54.58
2019-05-16T20:28:14.413Z,54.73
2019-05-16T20:30:42.166Z,54.71
2019-05-16T20:33:09.737Z,54.78
2019-05-16T20:35:37.698Z,54.82
2019-05-16T20:38:06.819Z,54.87
2019-05-16T20:40:37.206Z,54.96
2019-05-16T20:43:07.373Z,54.68
2019-05-16T20:45:36.195Z,54.96
2019-05-16T20:48:12.297Z,54.97
2019-05-16T20:50:33.431Z,55.06
2019-05-16T20:53:01.250Z,55.14
2019-05-16T20:55:28.915Z,55.15
2019-05-16T20:57:57.504Z,55.18
2019-05-16T21:00:26.808Z,55.27
2019-05-16T21:02:54.682Z,55.32
2019-05-16T21:05:22.454Z,55.37
2019-05-16T21:07:50.326Z,55.45
2019-05-16T21:10:18.014Z,55.61
2019-05-16T21:12:46.816Z,55.77
2019-05-16T21:15:17.139Z,55.66
2019-05-16T21:17:46.663Z,55.66
2019-05-16T21:20:14.705Z,55.66
2019-05-16T21:22:42.593Z,55.69
2019-05-16T21:25:10.544Z,55.68
2019-05-16T21:27:38.131Z,55.75
2019-05-16T21:30:07.448Z,55.79
2019-05-16T21:32:36.524Z,55.87
2019-05-16T21:35:06.994Z,55.93
2019-05-16T21:37:34.679Z,55.86
2019-05-16T21:40:04.532Z,55.91
2019-05-16T21:42:32.266Z,55.96
2019-05-16T21:45:00.033Z,55.97
2019-05-16T21:47:27.787Z,56.14
2019-05-16T21:49:56.848Z,55.97
2019-05-16T21:52:28.555Z,56.14
2019-05-16T21:54:56.337Z,56.09
2019-05-16T21:57:23.461Z,56.14
2019-05-16T21:59:51.197Z,56.17
2019-05-16T22:02:18.804Z,56.21
2019-05-16T22:04:47.391Z,56.19
2019-05-16T22:07:16.590Z,56.26
2019-05-16T22:09:46.438Z,56.38
2019-05-16T22:12:13.928Z,56.41
2019-05-16T22:14:47.410Z,56.72
2019-05-16T22:17:16.953Z,56.72
2019-05-16T22:19:46.841Z,56.68
2019-05-16T22:22:16.439Z,56.67
2019-05-16T22:24:46.148Z,56.70
2019-05-16T22:27:13.688Z,56.71
2019-05-16T22:29:41.453Z,56.75
2019-05-16T22:32:09.430Z,56.79
2019-05-16T22:34:37.159Z,56.87
2019-05-16T22:37:06.530Z,56.93
2019-05-16T22:39:34.235Z,56.96
2019-05-16T22:42:01.943Z,56.99
2019-05-16T22:44:29.637Z,57.08
2019-05-16T22:46:57.440Z,57.13
2019-05-16T22:49:27.349Z,57.20
2019-05-16T22:51:57.043Z,57.30
2019-05-16T22:54:26.271Z,57.61
2019-05-16T22:56:54.453Z,57.50
2019-05-16T22:59:22.124Z,57.45
2019-05-16T23:01:50.096Z,57.40
2019-05-16T23:04:17.871Z,57.38
2019-05-16T23:06:45.635Z,57.31
2019-05-16T23:09:13.527Z,57.38
2019-05-16T23:11:41.592Z,57.50
2019-05-16T23:14:09.350Z,57.50
2019-05-16T23:16:37.497Z,57.48
2019-05-16T23:19:06.653Z,57.49
2019-05-16T23:21:36.593Z,57.40
2019-05-16T23:24:04.013Z,57.42
2019-05-16T23:26:31.683Z,57.49
2019-05-16T23:28:59.348Z,57.41
2019-05-16T23:31:27.262Z,57.49
2019-05-16T23:33:56.463Z,57.50
2019-05-16T23:36:26.351Z,57.48
2019-05-16T23:38:53.902Z,57.49
2019-05-16T23:41:21.777Z,57.42
2019-05-16T23:43:49.545Z,57.56
2019-05-16T23:46:17.213Z,57.65
2019-05-16T23:48:47.060Z,57.91
2019-05-16T23:51:16.785Z,58.05
2019-05-16T23:53:46.448Z,58.28
2019-05-16T23:56:16.550Z,58.88
2019-05-16T23:58:43.841Z,59.25
